createdAt,value
2023-02-20T00:02:12.598Z,98228.09
2023-02-20T00:04:45.054Z,98229.69
2023-02-20T00:07:15.652Z,98239.75
2023-02-20T00:09:46.062Z,98242.06
2023-02-20T00:12:16.122Z,98243.63
2023-02-20T00:14:46.637Z,98253.31
2023-02-20T00:17:17.725Z,98240.53
2023-02-20T00:19:50.828Z,98256.34
2023-02-20T00:22:23.169Z,98252.13
2023-02-20T00:24:54.748Z,98263.38
2023-02-20T00:27:25.299Z,98248.25
2023-02-20T00:29:55.909Z,98259.13
2023-02-20T00:32:26.542Z,98270.69
2023-02-20T00:35:06.695Z,98266.06
2023-02-20T00:37:39.172Z,98274.59
2023-02-20T00:40:12.022Z,98269.19
2023-02-20T00:42:42.484Z,98263.41
2023-02-20T00:45:14.405Z,98270.69
2023-02-20T00:47:44.733Z,98273.44
2023-02-20T00:50:22.994Z,98276.16
2023-02-20T00:52:53.310Z,98283.38
2023-02-20T00:55:29.309Z,98279.22
2023-02-20T00:57:59.869Z,98286.47
2023-02-20T01:00:32.199Z,98283.50
2023-02-20T01:03:02.362Z,98286.56
2023-02-20T01:05:34.176Z,98289.69
2023-02-20T01:08:04.025Z,98281.94
2023-02-20T01:10:34.503Z,98293.53
2023-02-20T01:13:05.747Z,98291.63
2023-02-20T01:15:35.643Z,98291.66
2023-02-20T01:18:07.975Z,98302.00
2023-02-20T01:20:41.021Z,98305.75
2023-02-20T01:23:12.252Z,98305.97
2023-02-20T01:25:42.640Z,98307.91
2023-02-20T01:28:13.075Z,98311.75
2023-02-20T01:30:43.186Z,98313.31
2023-02-20T01:33:15.195Z,98318.69
2023-02-20T01:35:47.162Z,98320.16
2023-02-20T01:38:17.526Z,98316.28
2023-02-20T01:40:51.288Z,98314.88
2023-02-20T01:43:21.919Z,98310.19
2023-02-20T01:45:52.846Z,98315.56
2023-02-20T01:48:26.468Z,98311.00
2023-02-20T01:51:00.231Z,98308.69
2023-02-20T01:53:33.061Z,98321.06
2023-02-20T01:56:06.196Z,98316.78
2023-02-20T01:58:42.240Z,98321.78
2023-02-20T02:01:13.382Z,98313.31
2023-02-20T02:03:46.847Z,98309.44
2023-02-20T02:06:19.824Z,98313.72
2023-02-20T02:08:50.142Z,98318.63
2023-02-20T02:11:21.640Z,98316.75
2023-02-20T02:13:52.940Z,98323.41
2023-02-20T02:16:26.841Z,98335.75
2023-02-20T02:19:02.516Z,98322.59
2023-02-20T02:22:05.480Z,98334.94
2023-02-20T02:25:08.242Z,98334.19
2023-02-20T02:28:06.394Z,98338.81
2023-02-20T02:31:00.620Z,98327.97
2023-02-20T02:34:24.085Z,98317.16
2023-02-20T02:37:03.447Z,98319.47
2023-02-20T02:39:40.928Z,98327.56
2023-02-20T02:42:17.316Z,98328.44
2023-02-20T02:44:50.596Z,98324.16
2023-02-20T02:47:27.778Z,98327.25
2023-02-20T02:50:00.908Z,98335.00
2023-02-20T02:52:50.177Z,98330.72
2023-02-20T02:55:23.623Z,98340.38
2023-02-20T02:57:54.715Z,98338.47
2023-02-20T03:00:28.790Z,98337.19
2023-02-20T03:03:03.828Z,98339.56
2023-02-20T03:05:46.986Z,98341.47
2023-02-20T03:08:31.314Z,98351.50
2023-02-20T03:11:06.857Z,98353.94
2023-02-20T03:13:57.453Z,98350.38
2023-02-20T03:16:32.341Z,98346.97
2023-02-20T03:19:05.211Z,98338.06
2023-02-20T03:21:39.985Z,98355.00
2023-02-20T03:24:13.694Z,98346.41
2023-02-20T03:26:45.250Z,98353.91
2023-02-20T03:29:19.086Z,98349.25
2023-02-20T03:32:05.951Z,98355.03
2023-02-20T03:34:53.241Z,98375.97
2023-02-20T03:37:41.595Z,98374.44
2023-02-20T03:40:32.745Z,98389.72
2023-02-20T03:43:25.165Z,98392.56
2023-02-20T03:45:59.535Z,98386.50
2023-02-20T03:48:33.606Z,98384.13
2023-02-20T03:51:21.129Z,98373.72
2023-02-20T03:53:54.324Z,98381.53
2023-02-20T03:56:30.562Z,98395.94
2023-02-20T03:59:06.600Z,98401.59
2023-02-20T04:01:37.721Z,98393.06
2023-02-20T04:04:09.711Z,98390.28
2023-02-20T04:06:40.751Z,98389.84
2023-02-20T04:09:14.233Z,98397.00
2023-02-20T04:11:49.714Z,98403.09
2023-02-20T04:14:22.653Z,98412.91
2023-02-20T04:16:56.838Z,98401.84
2023-02-20T04:19:27.015Z,98399.84
2023-02-20T04:22:02.339Z,98405.63
2023-02-20T04:24:37.106Z,98408.41
2023-02-20T04:27:09.845Z,98400.81
2023-02-20T04:29:39.682Z,98409.97
2023-02-20T04:32:10.116Z,98408.59
2023-02-20T04:34:41.229Z,98407.81
2023-02-20T04:37:13.901Z,98417.00
2023-02-20T04:39:45.327Z,98410.41
2023-02-20T04:42:17.357Z,98404.63
2023-02-20T04:44:47.780Z,98407.59
2023-02-20T04:47:19.426Z,98411.00
2023-02-20T04:49:50.031Z,98418.34
2023-02-20T04:52:19.955Z,98418.41
2023-02-20T04:54:50.899Z,98418.41
2023-02-20T04:57:23.638Z,98426.38
2023-02-20T04:59:54.385Z,98420.63
2023-02-20T05:02:25.671Z,98413.81
2023-02-20T05:04:56.421Z,98412.28
2023-02-20T05:07:26.467Z,98418.22
2023-02-20T05:09:59.308Z,98417.69
2023-02-20T05:12:30.455Z,98414.63
2023-02-20T05:15:01.250Z,98412.34
2023-02-20T05:17:32.854Z,98408.03
2023-02-20T05:20:04.846Z,98403.56
2023-02-20T05:22:36.571Z,98394.50
2023-02-20T05:25:09.059Z,98396.00
2023-02-20T05:27:45.979Z,98398.47
2023-02-20T05:30:16.159Z,98389.22
2023-02-20T05:32:50.537Z,98388.44
2023-02-20T05:35:21.846Z,98405.03
2023-02-20T05:37:53.117Z,98406.59
2023-02-20T05:40:23.781Z,98405.38
2023-02-20T05:42:55.689Z,98403.38
2023-02-20T05:45:27.002Z,98406.50
2023-02-20T05:47:57.185Z,98410.00
2023-02-20T05:50:27.594Z,98409.88
2023-02-20T05:53:00.796Z,98409.56
2023-02-20T05:55:33.073Z,98418.09
2023-02-20T05:58:04.608Z,98417.59
2023-02-20T06:00:36.739Z,98426.03
2023-02-20T06:03:10.624Z,98433.94
2023-02-20T06:05:41.724Z,98425.88
2023-02-20T06:08:13.315Z,98425.47
2023-02-20T06:10:44.034Z,98427.00
2023-02-20T06:13:16.321Z,98433.78
2023-02-20T06:15:46.811Z,98423.16
2023-02-20T06:18:17.733Z,98419.63
2023-02-20T06:20:50.084Z,98416.72
2023-02-20T06:23:21.761Z,98424.63
2023-02-20T06:25:51.810Z,98425.41
2023-02-20T06:28:24.690Z,98430.78
2023-02-20T06:30:54.786Z,98437.00
2023-02-20T06:33:26.753Z,98435.31
2023-02-20T06:35:56.715Z,98427.44
2023-02-20T06:38:27.072Z,98429.34
2023-02-20T06:40:56.758Z,98430.69
2023-02-20T06:43:29.210Z,98436.88
2023-02-20T06:45:59.147Z,98452.94
2023-02-20T06:48:29.312Z,98451.94
2023-02-20T06:50:59.741Z,98466.34
2023-02-20T06:53:30.908Z,98473.81
2023-02-20T06:56:01.778Z,98466.72
2023-02-20T06:58:34.077Z,98463.44
2023-02-20T07:01:04.412Z,98473.53
2023-02-20T07:03:37.755Z,98464.78
2023-02-20T07:06:08.851Z,98466.03
2023-02-20T07:08:39.060Z,98468.59
2023-02-20T07:11:09.465Z,98457.47
2023-02-20T07:13:42.591Z,98461.03
2023-02-20T07:16:13.399Z,98462.78
2023-02-20T07:18:44.340Z,98451.06
2023-02-20T07:21:16.786Z,98445.78
2023-02-20T07:23:48.915Z,98435.69
2023-02-20T07:26:23.880Z,98436.16
2023-02-20T07:29:01.050Z,98439.50
2023-02-20T07:31:32.013Z,98443.94
2023-02-20T07:34:02.351Z,98450.00
2023-02-20T07:36:33.271Z,98443.09
2023-02-20T07:39:04.966Z,98446.78
2023-02-20T07:41:36.605Z,98446.72
2023-02-20T07:44:09.207Z,98446.50
2023-02-20T07:46:39.406Z,98435.03
2023-02-20T07:49:11.260Z,98442.41
2023-02-20T07:51:42.148Z,98442.00
2023-02-20T07:54:13.164Z,98432.94
2023-02-20T07:56:44.530Z,98433.25
2023-02-20T07:59:17.205Z,98427.97
2023-02-20T08:01:47.401Z,98426.06
2023-02-20T08:04:21.303Z,98425.84
2023-02-20T08:06:51.657Z,98418.63
2023-02-20T08:09:22.176Z,98426.19
2023-02-20T08:11:54.596Z,98422.28
2023-02-20T08:14:29.149Z,98412.28
2023-02-20T08:16:58.953Z,98414.13
2023-02-20T08:19:29.754Z,98409.06
2023-02-20T08:22:00.100Z,98410.56
2023-02-20T08:24:32.066Z,98408.88
2023-02-20T08:27:02.165Z,98409.91
2023-02-20T08:29:34.135Z,98402.03
2023-02-20T08:32:05.625Z,98402.63
2023-02-20T08:34:36.572Z,98406.66
2023-02-20T08:37:06.904Z,98391.44
2023-02-20T08:39:37.459Z,98379.41
2023-02-20T08:42:07.999Z,98380.88
2023-02-20T08:44:44.423Z,98360.25
2023-02-20T08:47:15.371Z,98367.06
2023-02-20T08:49:50.209Z,98367.25
2023-02-20T08:52:21.570Z,98365.16
2023-02-20T08:54:52.200Z,98369.28
2023-02-20T08:57:22.800Z,98357.59
2023-02-20T09:00:01.549Z,98355.31
2023-02-20T09:02:31.812Z,98353.22
2023-02-20T09:05:02.332Z,98350.47
2023-02-20T09:07:33.624Z,98350.25
2023-02-20T09:10:04.533Z,98348.63
2023-02-20T09:12:35.245Z,98351.59
2023-02-20T09:15:11.478Z,98346.91
2023-02-20T09:17:42.458Z,98339.06
2023-02-20T09:20:14.176Z,98333.44
2023-02-20T09:22:45.202Z,98335.00
2023-02-20T09:25:16.521Z,98328.41
2023-02-20T09:27:47.438Z,98340.31
2023-02-20T09:30:21.453Z,98327.91
2023-02-20T09:32:55.097Z,98322.22
2023-02-20T09:35:27.435Z,98326.47
2023-02-20T09:37:58.787Z,98327.66
2023-02-20T09:40:30.728Z,98329.88
2023-02-20T09:43:14.405Z,98316.38
2023-02-20T09:45:52.060Z,98315.41
2023-02-20T09:48:41.286Z,98319.50
2023-02-20T09:51:15.434Z,98311.16
2023-02-20T09:53:54.437Z,98300.88
2023-02-20T09:56:27.928Z,98293.56
2023-02-20T09:59:04.606Z,98288.50
2023-02-20T10:01:37.456Z,98295.50
2023-02-20T10:04:10.168Z,98290.84
2023-02-20T10:06:40.511Z,98281.56
2023-02-20T10:09:15.230Z,98280.00
2023-02-20T10:11:52.268Z,98281.19
2023-02-20T10:14:49.549Z,98276.91
2023-02-20T10:17:29.808Z,98285.41
2023-02-20T10:20:02.278Z,98274.53
2023-02-20T10:22:36.908Z,98268.09
2023-02-20T10:25:19.450Z,98273.94
2023-02-20T10:27:56.517Z,98275.19
2023-02-20T10:30:32.250Z,98274.25
2023-02-20T10:33:18.500Z,98272.59
2023-02-20T10:35:54.101Z,98278.31
2023-02-20T10:38:28.698Z,98279.50
2023-02-20T10:41:06.294Z,98272.03
2023-02-20T10:43:39.708Z,98267.03
2023-02-20T10:46:15.262Z,98263.38
2023-02-20T10:48:48.383Z,98266.81
2023-02-20T10:51:23.620Z,98260.13
2023-02-20T10:54:00.349Z,98262.03
2023-02-20T10:56:36.231Z,98253.41
2023-02-20T10:59:12.061Z,98240.28
2023-02-20T11:01:43.365Z,98235.72
2023-02-20T11:04:17.616Z,98230.81
2023-02-20T11:06:49.548Z,98222.94
2023-02-20T11:09:20.539Z,98225.97
2023-02-20T11:11:51.372Z,98228.44
2023-02-20T11:14:39.410Z,98224.44
2023-02-20T11:17:16.480Z,98221.16
2023-02-20T11:19:50.635Z,98208.16
2023-02-20T11:22:39.479Z,98200.16
2023-02-20T11:25:21.322Z,98188.09
2023-02-20T11:27:54.762Z,98187.81
2023-02-20T11:30:32.558Z,98178.91
2023-02-20T11:33:06.676Z,98173.78
2023-02-20T11:35:40.532Z,98167.75
2023-02-20T11:38:31.741Z,98158.63
2023-02-20T11:41:28.075Z,98156.63
2023-02-20T11:44:26.510Z,98156.34
2023-02-20T11:47:30.826Z,98140.56
2023-02-20T11:50:22.918Z,98128.66
2023-02-20T11:53:05.604Z,98122.06
2023-02-20T11:55:37.394Z,98120.47
2023-02-20T11:58:08.179Z,98117.88
2023-02-20T12:00:49.515Z,98100.13
2023-02-20T12:03:25.062Z,98097.13
2023-02-20T12:05:55.587Z,98095.34
2023-02-20T12:08:44.080Z,98085.78
2023-02-20T12:11:17.670Z,98078.84
2023-02-20T12:13:49.590Z,98067.63
2023-02-20T12:16:50.416Z,98072.06
2023-02-20T12:19:23.947Z,98066.06
2023-02-20T12:22:04.027Z,98058.19
2023-02-20T12:24:57.839Z,98053.91
2023-02-20T12:27:52.710Z,98038.78
2023-02-20T12:30:33.423Z,98040.13
2023-02-20T12:33:18.775Z,98033.41
2023-02-20T12:35:56.332Z,98021.81
2023-02-20T12:38:35.313Z,98026.16
2023-02-20T12:41:23.155Z,98023.03
2023-02-20T12:44:12.804Z,98024.50
2023-02-20T12:46:51.283Z,98012.72
2023-02-20T12:49:37.188Z,98004.16
2023-02-20T12:52:16.366Z,98004.41
2023-02-20T12:54:52.110Z,98012.81
2023-02-20T12:57:30.895Z,97994.53
2023-02-20T13:00:03.393Z,97996.38
2023-02-20T13:02:43.078Z,97996.00
2023-02-20T13:05:16.309Z,97993.19
2023-02-20T13:07:53.921Z,98000.75
2023-02-20T13:10:27.738Z,97996.13
2023-02-20T13:12:59.713Z,97995.28
2023-02-20T13:15:40.345Z,97997.84
2023-02-20T13:18:18.389Z,97997.38
2023-02-20T13:20:52.724Z,97994.88
2023-02-20T13:23:33.279Z,97994.94
2023-02-20T13:26:04.172Z,97980.06
2023-02-20T13:28:45.979Z,97982.25
2023-02-20T13:31:21.471Z,97972.22
2023-02-20T13:33:54.810Z,97970.38
2023-02-20T13:36:44.271Z,97967.25
2023-02-20T13:39:38.971Z,97960.00
2023-02-20T13:42:35.994Z,97954.44
2023-02-20T13:45:41.776Z,97951.69
2023-02-20T13:48:22.804Z,97945.22
2023-02-20T13:50:53.075Z,97948.84
2023-02-20T13:53:23.799Z,97944.94
2023-02-20T13:55:53.784Z,97935.38
2023-02-20T13:58:25.223Z,97929.53
2023-02-20T14:00:58.909Z,97926.94
2023-02-20T14:03:32.317Z,97931.44
2023-02-20T14:06:10.212Z,97924.59
2023-02-20T14:08:42.661Z,97921.47
2023-02-20T14:11:15.532Z,97912.56
2023-02-20T14:13:48.665Z,97911.84
2023-02-20T14:16:38.444Z,97908.41
2023-02-20T14:19:15.157Z,97903.81
2023-02-20T14:21:45.862Z,97907.22
2023-02-20T14:24:22.032Z,97903.72
2023-02-20T14:26:57.286Z,97894.44
2023-02-20T14:29:32.011Z,97904.69
2023-02-20T14:32:06.767Z,97905.06
2023-02-20T14:34:46.413Z,97904.97
2023-02-20T14:37:22.512Z,97901.03
2023-02-20T14:40:02.849Z,97898.25
2023-02-20T14:42:34.326Z,97892.78
2023-02-20T14:45:07.607Z,97889.16
2023-02-20T14:47:53.260Z,97877.28
2023-02-20T14:50:26.027Z,97883.47
2023-02-20T14:53:05.268Z,97886.19
2023-02-20T14:55:36.047Z,97875.63
2023-02-20T14:58:09.745Z,97861.44
2023-02-20T15:00:41.673Z,97870.28
2023-02-20T15:03:30.125Z,97870.00
2023-02-20T15:06:04.095Z,97867.47
2023-02-20T15:08:36.633Z,97857.22
2023-02-20T15:11:10.944Z,97869.94
2023-02-20T15:13:44.603Z,97867.59
2023-02-20T15:16:19.737Z,97863.84
2023-02-20T15:18:53.073Z,97867.16
2023-02-20T15:21:38.887Z,97863.75
2023-02-20T15:24:30.418Z,97861.38
2023-02-20T15:27:14.569Z,97856.16
2023-02-20T15:29:45.867Z,97847.59
2023-02-20T15:32:24.381Z,97844.97
2023-02-20T15:34:59.267Z,97847.50
2023-02-20T15:37:38.731Z,97844.09
2023-02-20T15:40:23.821Z,97841.88
2023-02-20T15:42:57.377Z,97839.66
2023-02-20T15:45:30.152Z,97837.81
2023-02-20T15:48:03.050Z,97832.53
2023-02-20T15:50:35.661Z,97832.19
2023-02-20T15:53:08.273Z,97829.47
2023-02-20T15:55:39.040Z,97831.78
2023-02-20T15:58:28.037Z,97837.16
2023-02-20T16:01:01.142Z,97828.44
2023-02-20T16:03:41.862Z,97837.69
2023-02-20T16:06:18.087Z,97824.50
2023-02-20T16:08:51.809Z,97820.97
2023-02-20T16:11:23.820Z,97833.22
2023-02-20T16:13:57.644Z,97826.06
2023-02-20T16:16:33.848Z,97815.34
2023-02-20T16:19:05.534Z,97804.97
2023-02-20T16:21:39.351Z,97816.44
2023-02-20T16:24:10.791Z,97816.69
2023-02-20T16:26:48.282Z,97815.66
2023-02-20T16:29:22.061Z,97820.66
2023-02-20T16:32:18.307Z,97822.47
2023-02-20T16:34:49.096Z,97818.53
2023-02-20T16:37:21.635Z,97823.44
2023-02-20T16:39:52.585Z,97817.09
2023-02-20T16:42:34.900Z,97815.28
2023-02-20T16:45:08.908Z,97824.84
2023-02-20T16:47:39.363Z,97823.78
2023-02-20T16:50:10.641Z,97824.44
2023-02-20T16:52:43.878Z,97829.03
2023-02-20T16:55:22.830Z,97815.44
2023-02-20T16:57:52.946Z,97819.72
2023-02-20T17:00:26.171Z,97823.50
2023-02-20T17:02:57.353Z,97828.63
2023-02-20T17:05:29.465Z,97822.44
2023-02-20T17:08:02.478Z,97812.94
2023-02-20T17:10:33.373Z,97816.91
2023-02-20T17:13:04.385Z,97817.47
2023-02-20T17:15:37.578Z,97814.94
2023-02-20T17:18:07.644Z,97806.28
2023-02-20T17:20:38.427Z,97812.22
2023-02-20T17:23:10.115Z,97825.00
2023-02-20T17:25:40.744Z,97825.13
2023-02-20T17:28:11.952Z,97836.31
2023-02-20T17:30:42.462Z,97823.56
2023-02-20T17:33:12.945Z,97841.94
2023-02-20T17:35:42.626Z,97833.66
2023-02-20T17:38:15.187Z,97823.34
2023-02-20T17:40:45.626Z,97830.56
2023-02-20T17:43:16.030Z,97836.97
2023-02-20T17:45:47.723Z,97829.28
2023-02-20T17:48:21.224Z,97829.28
2023-02-20T17:50:52.154Z,97842.91
2023-02-20T17:53:31.609Z,97826.69
2023-02-20T17:56:02.682Z,97839.34
2023-02-20T17:58:33.229Z,97829.09
2023-02-20T18:01:05.151Z,97823.19
2023-02-20T18:03:35.766Z,97827.78
2023-02-20T18:06:05.828Z,97835.53
2023-02-20T18:08:42.391Z,97824.59
2023-02-20T18:11:15.390Z,97817.63
2023-02-20T18:13:48.778Z,97827.34
2023-02-20T18:16:19.808Z,97827.16
2023-02-20T18:18:50.345Z,97823.69
2023-02-20T18:21:21.879Z,97821.72
2023-02-20T18:23:54.613Z,97821.59
2023-02-20T18:26:26.738Z,97809.59
2023-02-20T18:28:57.609Z,97808.59
2023-02-20T18:31:28.200Z,97802.66
2023-02-20T18:34:02.435Z,97793.78
2023-02-20T18:36:35.350Z,97798.28
2023-02-20T18:39:07.626Z,97798.19
2023-02-20T18:41:38.826Z,97796.09
2023-02-20T18:44:10.992Z,97798.59
2023-02-20T18:46:42.841Z,97788.34
2023-02-20T18:49:14.232Z,97784.75
2023-02-20T18:51:46.660Z,97775.50
2023-02-20T18:54:25.236Z,97772.91
2023-02-20T18:56:56.508Z,97768.66
2023-02-20T18:59:27.863Z,97771.81
2023-02-20T19:01:58.809Z,97751.22
2023-02-20T19:04:31.031Z,97750.34
2023-02-20T19:07:04.931Z,97747.66
2023-02-20T19:09:38.697Z,97750.31
2023-02-20T19:12:09.586Z,97759.38
2023-02-20T19:14:39.766Z,97756.53
2023-02-20T19:17:12.064Z,97755.06
2023-02-20T19:19:44.053Z,97735.00
2023-02-20T19:22:14.603Z,97725.59
2023-02-20T19:24:46.022Z,97701.94
2023-02-20T19:27:16.336Z,97695.81
2023-02-20T19:29:47.142Z,97677.47
2023-02-20T19:32:18.581Z,97690.41
2023-02-20T19:34:49.220Z,97688.19
2023-02-20T19:37:21.217Z,97702.56
2023-02-20T19:39:53.296Z,97707.06
2023-02-20T19:42:23.871Z,97714.31
2023-02-20T19:44:55.624Z,97732.63
2023-02-20T19:47:27.483Z,97737.78
2023-02-20T19:49:57.862Z,97736.88
2023-02-20T19:52:30.126Z,97742.22
2023-02-20T19:55:02.303Z,97742.34
2023-02-20T19:57:33.986Z,97736.69
2023-02-20T20:00:06.245Z,97729.06
2023-02-20T20:02:36.653Z,97747.53
2023-02-20T20:05:09.225Z,97717.69
2023-02-20T20:07:39.956Z,97722.97
2023-02-20T20:10:12.089Z,97739.16
2023-02-20T20:12:48.863Z,97724.69
2023-02-20T20:15:20.537Z,97715.78
2023-02-20T20:17:52.334Z,97718.09
2023-02-20T20:20:23.759Z,97724.78
2023-02-20T20:22:57.629Z,97723.31
2023-02-20T20:25:34.525Z,97729.53
2023-02-20T20:28:10.596Z,97726.06
2023-02-20T20:30:41.404Z,97730.31
2023-02-20T20:33:12.438Z,97721.69
2023-02-20T20:35:43.320Z,97724.47
2023-02-20T20:38:16.405Z,97722.75
2023-02-20T20:40:50.377Z,97726.13
2023-02-20T20:43:22.203Z,97733.56
2023-02-20T20:45:53.347Z,97735.16
2023-02-20T20:48:27.036Z,97724.38
2023-02-20T20:50:58.369Z,97718.28
2023-02-20T20:53:28.040Z,97728.63
2023-02-20T20:56:00.624Z,97735.59
2023-02-20T20:58:31.384Z,97730.41
2023-02-20T21:01:02.393Z,97736.69
2023-02-20T21:03:33.037Z,97745.16
2023-02-20T21:06:06.812Z,97743.97
2023-02-20T21:08:37.148Z,97746.56
2023-02-20T21:11:09.630Z,97743.47
2023-02-20T21:13:40.431Z,97751.47
2023-02-20T21:16:11.197Z,97746.72
2023-02-20T21:18:42.593Z,97751.03
2023-02-20T21:21:13.087Z,97758.13
2023-02-20T21:23:45.884Z,97744.56
2023-02-20T21:26:18.066Z,97753.91
2023-02-20T21:28:49.494Z,97759.78
2023-02-20T21:31:21.058Z,97760.19
2023-02-20T21:33:53.188Z,97742.66
2023-02-20T21:36:23.864Z,97743.09
2023-02-20T21:38:54.050Z,97736.66
2023-02-20T21:41:44.032Z,97731.84
2023-02-20T21:44:28.652Z,97739.38
2023-02-20T21:47:01.830Z,97727.38
2023-02-20T21:49:35.446Z,97728.19
2023-02-20T21:52:15.406Z,97724.03
2023-02-20T21:54:52.806Z,97728.50
2023-02-20T21:57:27.739Z,97732.97
2023-02-20T22:00:15.436Z,97720.53
2023-02-20T22:02:48.804Z,97735.53
2023-02-20T22:05:17.459Z,97712.69
2023-02-20T22:08:04.560Z,97706.31
2023-02-20T22:10:53.174Z,97706.97
2023-02-20T22:13:42.415Z,97705.53
2023-02-20T22:16:30.640Z,97699.75
2023-02-20T22:19:20.828Z,97708.78
2023-02-20T22:22:08.498Z,97711.25
2023-02-20T22:24:56.421Z,97700.91
2023-02-20T22:27:43.568Z,97701.22
2023-02-20T22:30:33.245Z,97700.94
2023-02-20T22:33:21.802Z,97701.97
2023-02-20T22:36:09.076Z,97695.41
2023-02-20T22:38:56.987Z,97701.94
2023-02-20T22:41:44.233Z,97689.06
2023-02-20T22:44:31.548Z,97688.28
2023-02-20T22:47:19.705Z,97696.19
2023-02-20T22:50:08.374Z,97701.38
2023-02-20T22:52:57.831Z,97687.13
2023-02-20T22:55:45.613Z,97692.59
2023-02-20T22:58:33.112Z,97681.50
2023-02-20T23:01:20.838Z,97678.28
2023-02-20T23:04:11.656Z,97675.69
2023-02-20T23:06:59.503Z,97686.25
2023-02-20T23:09:46.673Z,97669.91
2023-02-20T23:12:34.317Z,97681.44
2023-02-20T23:15:21.840Z,97691.53
2023-02-20T23:18:09.626Z,97674.91
2023-02-20T23:20:59.396Z,97682.47
2023-02-20T23:23:46.894Z,97685.06
2023-02-20T23:26:35.384Z,97687.09
2023-02-20T23:29:23.429Z,97680.25
2023-02-20T23:32:11.429Z,97684.88
2023-02-20T23:34:58.663Z,97680.69
2023-02-20T23:37:48.441Z,97670.69
2023-02-20T23:40:37.422Z,97672.50
2023-02-20T23:43:25.644Z,97660.72
2023-02-20T23:46:13.802Z,97655.84
2023-02-20T23:49:01.438Z,97649.31
2023-02-20T23:51:50.972Z,97653.88
2023-02-20T23:54:40.677Z,97647.69
2023-02-20T23:57:28.528Z,97639.47
